sensor_id;sensor_type;location;lat;lon;timestamp;temperature;humidity
67974;DHT22;54756;51.140;6.952;2023-12-14T00:00:06;8.50;99.90
67974;DHT22;54756;51.140;6.952;2023-12-14T00:02:08;8.50;99.90
67974;DHT22;54756;51.140;6.952;2023-12-14T00:04:08;8.60;99.90
67974;DHT22;54756;51.140;6.952;2023-12-14T00:06:13;8.60;99.90
67974;DHT22;54756;51.140;6.952;2023-12-14T00:08:14;8.50;99.90
67974;DHT22;54756;51.140;6.952;2023-12-14T00:10:14;8.50;99.90
67974;DHT22;54756;51.140;6.952;2023-12-14T00:12:15;8.50;99.90
67974;DHT22;54756;51.140;6.952;2023-12-14T00:14:15;8.60;99.90
67974;DHT22;54756;51.140;6.952;2023-12-14T00:16:16;8.60;99.90
67974;DHT22;54756;51.140;6.952;2023-12-14T00:18:16;8.60;99.90
67974;DHT22;54756;51.140;6.952;2023-12-14T00:20:17;8.60;99.90
67974;DHT22;54756;51.140;6.952;2023-12-14T00:22:17;8.60;99.90
67974;DHT22;54756;51.140;6.952;2023-12-14T00:24:18;8.60;99.90
67974;DHT22;54756;51.140;6.952;2023-12-14T00:26:18;8.60;99.90
67974;DHT22;54756;51.140;6.952;2023-12-14T00:28:19;8.60;99.90
67974;DHT22;54756;51.140;6.952;2023-12-14T00:30:20;8.60;99.90
67974;DHT22;54756;51.140;6.952;2023-12-14T00:32:21;8.60;99.90
67974;DHT22;54756;51.140;6.952;2023-12-14T00:34:21;8.60;99.90
67974;DHT22;54756;51.140;6.952;2023-12-14T00:36:22;8.60;99.90
67974;DHT22;54756;51.140;6.952;2023-12-14T00:38:22;8.60;99.90
67974;DHT22;54756;51.140;6.952;2023-12-14T00:40:23;8.60;99.90
67974;DHT22;54756;51.140;6.952;2023-12-14T00:42:23;8.60;99.90
67974;DHT22;54756;51.140;6.952;2023-12-14T00:44:24;8.60;99.90
67974;DHT22;54756;51.140;6.952;2023-12-14T00:46:24;8.60;99.90
67974;DHT22;54756;51.140;6.952;2023-12-14T00:48:25;8.60;99.90
67974;DHT22;54756;51.140;6.952;2023-12-14T00:50:25;8.60;99.90
67974;DHT22;54756;51.140;6.952;2023-12-14T00:52:26;8.60;99.90
67974;DHT22;54756;51.140;6.952;2023-12-14T00:54:26;8.60;99.90
67974;DHT22;54756;51.140;6.952;2023-12-14T00:56:27;8.60;99.90
67974;DHT22;54756;51.140;6.952;2023-12-14T00:58:27;8.60;99.90
67974;DHT22;54756;51.140;6.952;2023-12-14T01:00:28;8.60;99.90
67974;DHT22;54756;51.140;6.952;2023-12-14T01:02:29;8.60;99.90
67974;DHT22;54756;51.140;6.952;2023-12-14T01:04:29;8.60;99.90
67974;DHT22;54756;51.140;6.952;2023-12-14T01:06:30;8.60;99.90
67974;DHT22;54756;51.140;6.952;2023-12-14T01:08:30;8.60;99.90
67974;DHT22;54756;51.140;6.952;2023-12-14T01:10:31;8.60;99.90
67974;DHT22;54756;51.140;6.952;2023-12-14T01:12:33;8.60;99.90
67974;DHT22;54756;51.140;6.952;2023-12-14T01:14:33;8.60;99.90
67974;DHT22;54756;51.140;6.952;2023-12-14T01:16:35;8.60;99.90
67974;DHT22;54756;51.140;6.952;2023-12-14T01:18:35;8.60;99.90
67974;DHT22;54756;51.140;6.952;2023-12-14T01:20:36;8.60;99.90
67974;DHT22;54756;51.140;6.952;2023-12-14T01:22:36;8.60;99.90
67974;DHT22;54756;51.140;6.952;2023-12-14T01:24:37;8.60;99.90
67974;DHT22;54756;51.140;6.952;2023-12-14T01:26:37;8.60;99.90
67974;DHT22;54756;51.140;6.952;2023-12-14T01:28:38;8.60;99.90
67974;DHT22;54756;51.140;6.952;2023-12-14T01:30:38;8.60;99.90
67974;DHT22;54756;51.140;6.952;2023-12-14T01:32:39;8.60;99.90
67974;DHT22;54756;51.140;6.952;2023-12-14T01:34:40;8.60;99.90
67974;DHT22;54756;51.140;6.952;2023-12-14T01:36:40;8.60;99.90
67974;DHT22;54756;51.140;6.952;2023-12-14T01:38:41;8.60;99.90
67974;DHT22;54756;51.140;6.952;2023-12-14T01:40:41;8.60;99.90
67974;DHT22;54756;51.140;6.952;2023-12-14T01:42:42;8.60;99.90
67974;DHT22;54756;51.140;6.952;2023-12-14T01:44:42;8.60;99.90
67974;DHT22;54756;51.140;6.952;2023-12-14T01:46:43;8.60;99.90
67974;DHT22;54756;51.140;6.952;2023-12-14T01:48:43;8.60;99.90
67974;DHT22;54756;51.140;6.952;2023-12-14T01:50:44;8.60;99.90
67974;DHT22;54756;51.140;6.952;2023-12-14T01:52:44;8.60;99.90
67974;DHT22;54756;51.140;6.952;2023-12-14T01:54:45;8.60;99.90
67974;DHT22;54756;51.140;6.952;2023-12-14T01:56:45;8.60;99.90
67974;DHT22;54756;51.140;6.952;2023-12-14T01:58:46;8.60;99.90
67974;DHT22;54756;51.140;6.952;2023-12-14T02:02:57;8.60;99.90
67974;DHT22;54756;51.140;6.952;2023-12-14T02:04:58;8.60;99.90
67974;DHT22;54756;51.140;6.952;2023-12-14T02:06:58;8.60;99.90
67974;DHT22;54756;51.140;6.952;2023-12-14T02:08:59;8.50;99.90
67974;DHT22;54756;51.140;6.952;2023-12-14T02:10:59;8.50;99.90
67974;DHT22;54756;51.140;6.952;2023-12-14T02:13:03;8.50;99.90
67974;DHT22;54756;51.140;6.952;2023-12-14T02:15:04;8.60;99.90
67974;DHT22;54756;51.140;6.952;2023-12-14T02:17:05;8.50;99.90
67974;DHT22;54756;51.140;6.952;2023-12-14T02:19:05;8.50;99.90
67974;DHT22;54756;51.140;6.952;2023-12-14T02:21:06;8.50;99.90
67974;DHT22;54756;51.140;6.952;2023-12-14T02:23:07;8.50;99.90
67974;DHT22;54756;51.140;6.952;2023-12-14T02:25:07;8.50;99.90
67974;DHT22;54756;51.140;6.952;2023-12-14T02:27:08;8.40;99.90
67974;DHT22;54756;51.140;6.952;2023-12-14T02:29:08;8.50;99.90
67974;DHT22;54756;51.140;6.952;2023-12-14T02:31:09;8.40;99.90
67974;DHT22;54756;51.140;6.952;2023-12-14T02:33:10;8.40;99.90
67974;DHT22;54756;51.140;6.952;2023-12-14T02:35:10;8.40;99.90
67974;DHT22;54756;51.140;6.952;2023-12-14T02:37:11;8.40;99.90
67974;DHT22;54756;51.140;6.952;2023-12-14T02:39:11;8.40;99.90
67974;DHT22;54756;51.140;6.952;2023-12-14T02:41:12;8.40;99.90
67974;DHT22;54756;51.140;6.952;2023-12-14T02:43:13;8.40;99.90
67974;DHT22;54756;51.140;6.952;2023-12-14T02:45:13;8.40;99.90
67974;DHT22;54756;51.140;6.952;2023-12-14T02:47:14;8.30;99.90
67974;DHT22;54756;51.140;6.952;2023-12-14T02:49:14;8.40;99.90
67974;DHT22;54756;51.140;6.952;2023-12-14T02:51:15;8.40;99.90
67974;DHT22;54756;51.140;6.952;2023-12-14T02:53:15;8.30;99.90
67974;DHT22;54756;51.140;6.952;2023-12-14T02:55:16;8.30;99.90
67974;DHT22;54756;51.140;6.952;2023-12-14T02:57:16;8.30;99.90
67974;DHT22;54756;51.140;6.952;2023-12-14T02:59:17;8.30;99.90
67974;DHT22;54756;51.140;6.952;2023-12-14T03:01:21;8.30;99.90
67974;DHT22;54756;51.140;6.952;2023-12-14T03:03:21;8.30;99.90
67974;DHT22;54756;51.140;6.952;2023-12-14T03:05:22;8.30;99.90
67974;DHT22;54756;51.140;6.952;2023-12-14T03:07:22;8.30;99.90
67974;DHT22;54756;51.140;6.952;2023-12-14T03:09:23;8.30;99.90
67974;DHT22;54756;51.140;6.952;2023-12-14T03:11:24;8.30;99.90
67974;DHT22;54756;51.140;6.952;2023-12-14T03:13:25;8.20;99.90
67974;DHT22;54756;51.140;6.952;2023-12-14T03:15:25;8.20;99.90
67974;DHT22;54756;51.140;6.952;2023-12-14T03:17:26;8.20;99.90
67974;DHT22;54756;51.140;6.952;2023-12-14T03:19:27;8.20;99.90
67974;DHT22;54756;51.140;6.952;2023-12-14T03:21:27;8.20;99.90
67974;DHT22;54756;51.140;6.952;2023-12-14T03:23:28;8.20;99.90
67974;DHT22;54756;51.140;6.952;2023-12-14T03:25:28;8.20;99.90
67974;DHT22;54756;51.140;6.952;2023-12-14T03:27:29;8.20;99.90
67974;DHT22;54756;51.140;6.952;2023-12-14T03:29:29;8.10;99.90
67974;DHT22;54756;51.140;6.952;2023-12-14T03:31:30;8.10;99.90
67974;DHT22;54756;51.140;6.952;2023-12-14T03:33:30;8.10;99.90
67974;DHT22;54756;51.140;6.952;2023-12-14T03:35:31;8.10;99.90
67974;DHT22;54756;51.140;6.952;2023-12-14T03:37:31;8.10;99.90
67974;DHT22;54756;51.140;6.952;2023-12-14T03:39:32;8.10;99.90
67974;DHT22;54756;51.140;6.952;2023-12-14T03:41:32;8.10;99.90
67974;DHT22;54756;51.140;6.952;2023-12-14T03:43:33;8.10;99.90
67974;DHT22;54756;51.140;6.952;2023-12-14T03:45:33;8.10;99.90
67974;DHT22;54756;51.140;6.952;2023-12-14T03:47:34;8.10;99.90
67974;DHT22;54756;51.140;6.952;2023-12-14T03:49:38;8.00;99.90
67974;DHT22;54756;51.140;6.952;2023-12-14T03:51:39;8.10;99.90
67974;DHT22;54756;51.140;6.952;2023-12-14T03:53:43;8.00;99.90
67974;DHT22;54756;51.140;6.952;2023-12-14T03:55:43;8.00;99.90
67974;DHT22;54756;51.140;6.952;2023-12-14T03:57:44;8.00;99.90
67974;DHT22;54756;51.140;6.952;2023-12-14T03:59:44;8.00;99.90
67974;DHT22;54756;51.140;6.952;2023-12-14T04:01:45;8.00;99.90
67974;DHT22;54756;51.140;6.952;2023-12-14T04:03:46;8.00;99.90
67974;DHT22;54756;51.140;6.952;2023-12-14T04:05:46;8.00;99.90
67974;DHT22;54756;51.140;6.952;2023-12-14T04:07:47;8.00;99.90
67974;DHT22;54756;51.140;6.952;2023-12-14T04:09:48;7.90;99.90
67974;DHT22;54756;51.140;6.952;2023-12-14T04:11:49;7.90;99.90
67974;DHT22;54756;51.140;6.952;2023-12-14T04:13:49;7.90;99.90
67974;DHT22;54756;51.140;6.952;2023-12-14T04:15:51;7.90;99.90
67974;DHT22;54756;51.140;6.952;2023-12-14T04:17:51;7.90;99.90
67974;DHT22;54756;51.140;6.952;2023-12-14T04:19:52;7.90;99.90
67974;DHT22;54756;51.140;6.952;2023-12-14T04:21:52;7.90;99.90
67974;DHT22;54756;51.140;6.952;2023-12-14T04:23:53;7.90;99.90
67974;DHT22;54756;51.140;6.952;2023-12-14T04:25:53;7.90;99.90
67974;DHT22;54756;51.140;6.952;2023-12-14T04:27:54;7.80;99.90
67974;DHT22;54756;51.140;6.952;2023-12-14T04:29:54;7.80;99.90
67974;DHT22;54756;51.140;6.952;2023-12-14T04:31:55;7.80;99.90
67974;DHT22;54756;51.140;6.952;2023-12-14T04:33:55;7.80;99.90
67974;DHT22;54756;51.140;6.952;2023-12-14T04:35:56;7.80;99.90
67974;DHT22;54756;51.140;6.952;2023-12-14T04:37:56;7.80;99.90
67974;DHT22;54756;51.140;6.952;2023-12-14T04:39:57;7.80;99.90
67974;DHT22;54756;51.140;6.952;2023-12-14T04:41:58;7.80;99.90
67974;DHT22;54756;51.140;6.952;2023-12-14T04:43:58;7.70;99.90
67974;DHT22;54756;51.140;6.952;2023-12-14T04:45:59;7.70;99.90
67974;DHT22;54756;51.140;6.952;2023-12-14T04:47:59;7.70;99.90
67974;DHT22;54756;51.140;6.952;2023-12-14T04:50:00;7.70;99.90
67974;DHT22;54756;51.140;6.952;2023-12-14T04:52:01;7.70;99.90
67974;DHT22;54756;51.140;6.952;2023-12-14T04:54:01;7.70;99.90
67974;DHT22;54756;51.140;6.952;2023-12-14T04:56:02;7.70;99.90
67974;DHT22;54756;51.140;6.952;2023-12-14T04:58:03;7.70;99.90
67974;DHT22;54756;51.140;6.952;2023-12-14T05:00:05;7.70;99.90
67974;DHT22;54756;51.140;6.952;2023-12-14T05:02:05;7.70;99.90
67974;DHT22;54756;51.140;6.952;2023-12-14T05:04:06;7.70;99.90
67974;DHT22;54756;51.140;6.952;2023-12-14T05:06:07;7.70;99.90
67974;DHT22;54756;51.140;6.952;2023-12-14T05:08:07;7.60;99.90
67974;DHT22;54756;51.140;6.952;2023-12-14T05:10:08;7.60;99.90
67974;DHT22;54756;51.140;6.952;2023-12-14T05:12:10;7.60;99.90
67974;DHT22;54756;51.140;6.952;2023-12-14T05:14:10;7.60;99.90
67974;DHT22;54756;51.140;6.952;2023-12-14T05:16:14;7.60;99.90
67974;DHT22;54756;51.140;6.952;2023-12-14T05:18:15;7.60;99.90
67974;DHT22;54756;51.140;6.952;2023-12-14T05:20:15;7.60;99.90
67974;DHT22;54756;51.140;6.952;2023-12-14T05:22:16;7.60;99.90
67974;DHT22;54756;51.140;6.952;2023-12-14T05:24:16;7.60;99.90
67974;DHT22;54756;51.140;6.952;2023-12-14T05:26:17;7.60;99.90
67974;DHT22;54756;51.140;6.952;2023-12-14T05:28:17;7.60;99.90
67974;DHT22;54756;51.140;6.952;2023-12-14T05:30:18;7.60;99.90
67974;DHT22;54756;51.140;6.952;2023-12-14T05:32:18;7.50;99.90
67974;DHT22;54756;51.140;6.952;2023-12-14T05:34:19;7.50;99.90
67974;DHT22;54756;51.140;6.952;2023-12-14T05:36:19;7.50;99.90
67974;DHT22;54756;51.140;6.952;2023-12-14T05:38:20;7.50;99.90
67974;DHT22;54756;51.140;6.952;2023-12-14T05:40:20;7.50;99.90
67974;DHT22;54756;51.140;6.952;2023-12-14T05:42:21;7.50;99.90
67974;DHT22;54756;51.140;6.952;2023-12-14T05:44:22;7.50;99.90
67974;DHT22;54756;51.140;6.952;2023-12-14T05:46:23;7.50;99.90
67974;DHT22;54756;51.140;6.952;2023-12-14T05:48:24;7.40;99.90
67974;DHT22;54756;51.140;6.952;2023-12-14T05:50:27;7.40;99.90
67974;DHT22;54756;51.140;6.952;2023-12-14T05:52:28;7.40;99.90
67974;DHT22;54756;51.140;6.952;2023-12-14T05:54:28;7.50;99.90
67974;DHT22;54756;51.140;6.952;2023-12-14T05:56:29;7.40;99.90
67974;DHT22;54756;51.140;6.952;2023-12-14T05:58:29;7.40;99.90
67974;DHT22;54756;51.140;6.952;2023-12-14T06:00:30;7.40;99.90
67974;DHT22;54756;51.140;6.952;2023-12-14T06:02:33;7.40;99.90
67974;DHT22;54756;51.140;6.952;2023-12-14T06:04:34;7.40;99.90
67974;DHT22;54756;51.140;6.952;2023-12-14T06:06:34;7.40;99.90
67974;DHT22;54756;51.140;6.952;2023-12-14T06:08:35;7.40;99.90
67974;DHT22;54756;51.140;6.952;2023-12-14T06:10:35;7.40;99.90
67974;DHT22;54756;51.140;6.952;2023-12-14T06:12:37;7.40;99.90
67974;DHT22;54756;51.140;6.952;2023-12-14T06:14:37;7.40;99.90
67974;DHT22;54756;51.140;6.952;2023-12-14T06:16:38;7.40;99.90
67974;DHT22;54756;51.140;6.952;2023-12-14T06:18:40;7.40;99.90
67974;DHT22;54756;51.140;6.952;2023-12-14T06:20:41;7.30;99.90
67974;DHT22;54756;51.140;6.952;2023-12-14T06:22:42;7.40;99.90
67974;DHT22;54756;51.140;6.952;2023-12-14T06:24:43;7.30;99.90
67974;DHT22;54756;51.140;6.952;2023-12-14T06:26:44;7.30;99.90
67974;DHT22;54756;51.140;6.952;2023-12-14T06:28:44;7.30;99.90
67974;DHT22;54756;51.140;6.952;2023-12-14T06:30:45;7.30;99.90
67974;DHT22;54756;51.140;6.952;2023-12-14T06:32:46;7.30;99.90
67974;DHT22;54756;51.140;6.952;2023-12-14T06:34:46;7.30;99.90
67974;DHT22;54756;51.140;6.952;2023-12-14T06:36:47;7.40;99.90
67974;DHT22;54756;51.140;6.952;2023-12-14T06:38:47;7.30;99.90
67974;DHT22;54756;51.140;6.952;2023-12-14T06:40:48;7.30;99.90
67974;DHT22;54756;51.140;6.952;2023-12-14T06:42:49;7.30;99.90
67974;DHT22;54756;51.140;6.952;2023-12-14T06:44:50;7.30;99.90
67974;DHT22;54756;51.140;6.952;2023-12-14T06:46:50;7.30;99.90
67974;DHT22;54756;51.140;6.952;2023-12-14T06:48:51;7.30;99.90
67974;DHT22;54756;51.140;6.952;2023-12-14T06:50:51;7.30;99.90
67974;DHT22;54756;51.140;6.952;2023-12-14T06:52:55;7.30;99.90
67974;DHT22;54756;51.140;6.952;2023-12-14T06:54:55;7.30;99.90
67974;DHT22;54756;51.140;6.952;2023-12-14T06:56:56;7.30;99.90
67974;DHT22;54756;51.140;6.952;2023-12-14T06:58:56;7.30;99.90
67974;DHT22;54756;51.140;6.952;2023-12-14T07:00:57;7.30;99.90
67974;DHT22;54756;51.140;6.952;2023-12-14T07:02:57;7.30;99.90
67974;DHT22;54756;51.140;6.952;2023-12-14T07:04:58;7.30;99.90
67974;DHT22;54756;51.140;6.952;2023-12-14T07:06:58;7.30;99.90
67974;DHT22;54756;51.140;6.952;2023-12-14T07:08:59;7.30;99.90
67974;DHT22;54756;51.140;6.952;2023-12-14T07:11:00;7.30;99.90
67974;DHT22;54756;51.140;6.952;2023-12-14T07:13:00;7.30;99.90
67974;DHT22;54756;51.140;6.952;2023-12-14T07:15:01;7.30;99.90
67974;DHT22;54756;51.140;6.952;2023-12-14T07:17:02;7.30;99.90
67974;DHT22;54756;51.140;6.952;2023-12-14T07:19:02;7.30;99.90
67974;DHT22;54756;51.140;6.952;2023-12-14T07:21:03;7.30;99.90
67974;DHT22;54756;51.140;6.952;2023-12-14T07:23:04;7.30;99.90
67974;DHT22;54756;51.140;6.952;2023-12-14T07:25:05;7.20;99.90
67974;DHT22;54756;51.140;6.952;2023-12-14T07:27:06;7.30;99.90
67974;DHT22;54756;51.140;6.952;2023-12-14T07:29:06;7.30;99.90
67974;DHT22;54756;51.140;6.952;2023-12-14T07:31:07;7.20;99.90
67974;DHT22;54756;51.140;6.952;2023-12-14T07:33:07;7.20;99.90
67974;DHT22;54756;51.140;6.952;2023-12-14T07:35:08;7.20;99.90
67974;DHT22;54756;51.140;6.952;2023-12-14T07:37:09;7.20;99.90
67974;DHT22;54756;51.140;6.952;2023-12-14T07:39:09;7.20;99.90
67974;DHT22;54756;51.140;6.952;2023-12-14T07:41:10;7.20;99.90
67974;DHT22;54756;51.140;6.952;2023-12-14T07:43:10;7.20;99.90
67974;DHT22;54756;51.140;6.952;2023-12-14T07:45:12;7.20;99.90
67974;DHT22;54756;51.140;6.952;2023-12-14T07:47:12;7.20;99.90
67974;DHT22;54756;51.140;6.952;2023-12-14T07:49:13;7.20;99.90
67974;DHT22;54756;51.140;6.952;2023-12-14T07:51:15;7.20;99.90
67974;DHT22;54756;51.140;6.952;2023-12-14T07:53:15;7.20;99.90
67974;DHT22;54756;51.140;6.952;2023-12-14T07:55:16;7.20;99.90
67974;DHT22;54756;51.140;6.952;2023-12-14T07:57:17;7.20;99.90
67974;DHT22;54756;51.140;6.952;2023-12-14T07:59:18;7.10;99.90
67974;DHT22;54756;51.140;6.952;2023-12-14T08:01:18;7.10;99.90
67974;DHT22;54756;51.140;6.952;2023-12-14T08:03:19;7.10;99.90
67974;DHT22;54756;51.140;6.952;2023-12-14T08:05:20;7.10;99.90
67974;DHT22;54756;51.140;6.952;2023-12-14T08:07:20;7.10;99.90
67974;DHT22;54756;51.140;6.952;2023-12-14T08:09:21;7.10;99.90
67974;DHT22;54756;51.140;6.952;2023-12-14T08:11:21;7.10;99.90
67974;DHT22;54756;51.140;6.952;2023-12-14T08:13:22;7.10;99.90
67974;DHT22;54756;51.140;6.952;2023-12-14T08:15:22;7.10;99.90
67974;DHT22;54756;51.140;6.952;2023-12-14T08:17:23;7.10;99.90
67974;DHT22;54756;51.140;6.952;2023-12-14T08:19:23;7.00;99.90
67974;DHT22;54756;51.140;6.952;2023-12-14T08:21:24;7.00;99.90
67974;DHT22;54756;51.140;6.952;2023-12-14T08:23:24;7.00;99.90
67974;DHT22;54756;51.140;6.952;2023-12-14T08:25:27;7.00;99.90
67974;DHT22;54756;51.140;6.952;2023-12-14T08:27:28;7.00;99.90
67974;DHT22;54756;51.140;6.952;2023-12-14T08:29:28;7.00;99.90
67974;DHT22;54756;51.140;6.952;2023-12-14T08:31:29;7.00;99.90
67974;DHT22;54756;51.140;6.952;2023-12-14T08:33:30;7.00;99.90
67974;DHT22;54756;51.140;6.952;2023-12-14T08:35:30;7.00;99.90
67974;DHT22;54756;51.140;6.952;2023-12-14T08:37:31;7.00;99.90
67974;DHT22;54756;51.140;6.952;2023-12-14T08:39:31;7.00;99.90
67974;DHT22;54756;51.140;6.952;2023-12-14T08:41:32;7.00;99.90
67974;DHT22;54756;51.140;6.952;2023-12-14T08:43:32;7.00;99.90
67974;DHT22;54756;51.140;6.952;2023-12-14T08:45:33;7.00;99.90
67974;DHT22;54756;51.140;6.952;2023-12-14T08:47:33;7.00;99.90
67974;DHT22;54756;51.140;6.952;2023-12-14T08:49:34;7.00;99.90
67974;DHT22;54756;51.140;6.952;2023-12-14T08:51:35;7.00;99.90
67974;DHT22;54756;51.140;6.952;2023-12-14T08:53:36;7.00;99.90
67974;DHT22;54756;51.140;6.952;2023-12-14T08:55:36;7.00;99.90
67974;DHT22;54756;51.140;6.952;2023-12-14T08:57:38;7.00;99.90
67974;DHT22;54756;51.140;6.952;2023-12-14T08:59:39;7.00;99.90
67974;DHT22;54756;51.140;6.952;2023-12-14T09:01:39;7.00;99.90
67974;DHT22;54756;51.140;6.952;2023-12-14T09:03:40;7.00;99.90
67974;DHT22;54756;51.140;6.952;2023-12-14T09:05:40;7.00;99.90
67974;DHT22;54756;51.140;6.952;2023-12-14T09:07:43;6.90;99.90
67974;DHT22;54756;51.140;6.952;2023-12-14T09:09:44;6.90;99.90
67974;DHT22;54756;51.140;6.952;2023-12-14T09:11:45;6.90;99.90
67974;DHT22;54756;51.140;6.952;2023-12-14T09:13:45;6.90;99.90
67974;DHT22;54756;51.140;6.952;2023-12-14T09:15:46;6.90;99.90
67974;DHT22;54756;51.140;6.952;2023-12-14T09:17:46;6.90;99.90
67974;DHT22;54756;51.140;6.952;2023-12-14T09:19:47;6.90;99.90
67974;DHT22;54756;51.140;6.952;2023-12-14T09:21:48;6.90;99.90
67974;DHT22;54756;51.140;6.952;2023-12-14T09:23:48;6.90;99.90
67974;DHT22;54756;51.140;6.952;2023-12-14T09:25:49;6.90;99.90
67974;DHT22;54756;51.140;6.952;2023-12-14T09:27:50;6.90;99.90
67974;DHT22;54756;51.140;6.952;2023-12-14T09:29:50;6.90;99.90
67974;DHT22;54756;51.140;6.952;2023-12-14T09:31:51;6.90;99.90
67974;DHT22;54756;51.140;6.952;2023-12-14T09:33:51;6.90;99.90
67974;DHT22;54756;51.140;6.952;2023-12-14T09:35:52;6.90;99.90
67974;DHT22;54756;51.140;6.952;2023-12-14T09:37:52;6.90;99.90
67974;DHT22;54756;51.140;6.952;2023-12-14T09:39:54;6.90;99.90
67974;DHT22;54756;51.140;6.952;2023-12-14T09:42:02;6.90;99.90
67974;DHT22;54756;51.140;6.952;2023-12-14T09:44:05;6.90;99.90
67974;DHT22;54756;51.140;6.952;2023-12-14T09:46:07;6.90;99.90
67974;DHT22;54756;51.140;6.952;2023-12-14T09:48:10;6.90;99.90
67974;DHT22;54756;51.140;6.952;2023-12-14T09:50:12;6.90;99.90
67974;DHT22;54756;51.140;6.952;2023-12-14T09:52:14;6.80;99.90
67974;DHT22;54756;51.140;6.952;2023-12-14T09:54:15;6.80;99.90
67974;DHT22;54756;51.140;6.952;2023-12-14T09:56:15;6.80;99.90
67974;DHT22;54756;51.140;6.952;2023-12-14T09:58:16;6.80;99.90
67974;DHT22;54756;51.140;6.952;2023-12-14T10:00:36;6.80;99.90
67974;DHT22;54756;51.140;6.952;2023-12-14T10:02:37;6.80;99.90
67974;DHT22;54756;51.140;6.952;2023-12-14T10:04:37;6.80;99.90
67974;DHT22;54756;51.140;6.952;2023-12-14T10:06:39;6.80;99.90
67974;DHT22;54756;51.140;6.952;2023-12-14T10:08:40;6.80;99.90
67974;DHT22;54756;51.140;6.952;2023-12-14T10:10:41;6.80;99.90
67974;DHT22;54756;51.140;6.952;2023-12-14T10:12:54;6.80;99.90
67974;DHT22;54756;51.140;6.952;2023-12-14T10:15:01;6.80;99.90
67974;DHT22;54756;51.140;6.952;2023-12-14T10:17:18;6.80;99.90
67974;DHT22;54756;51.140;6.952;2023-12-14T10:19:19;6.80;99.90
67974;DHT22;54756;51.140;6.952;2023-12-14T10:21:20;6.80;99.90
67974;DHT22;54756;51.140;6.952;2023-12-14T10:23:21;6.70;99.90
67974;DHT22;54756;51.140;6.952;2023-12-14T10:25:22;6.80;99.90
67974;DHT22;54756;51.140;6.952;2023-12-14T10:27:22;6.80;99.90
67974;DHT22;54756;51.140;6.952;2023-12-14T10:29:23;6.80;99.90
67974;DHT22;54756;51.140;6.952;2023-12-14T10:31:24;6.70;99.90
67974;DHT22;54756;51.140;6.952;2023-12-14T10:33:26;6.80;99.90
67974;DHT22;54756;51.140;6.952;2023-12-14T10:35:26;6.70;99.90
67974;DHT22;54756;51.140;6.952;2023-12-14T10:37:28;6.70;99.90
67974;DHT22;54756;51.140;6.952;2023-12-14T10:39:30;6.70;99.90
67974;DHT22;54756;51.140;6.952;2023-12-14T10:41:31;6.70;99.90
67974;DHT22;54756;51.140;6.952;2023-12-14T10:43:36;6.70;99.90
67974;DHT22;54756;51.140;6.952;2023-12-14T10:45:38;6.70;99.90
67974;DHT22;54756;51.140;6.952;2023-12-14T10:47:47;6.70;99.90
67974;DHT22;54756;51.140;6.952;2023-12-14T10:49:50;6.70;99.90
67974;DHT22;54756;51.140;6.952;2023-12-14T10:51:55;6.70;99.90
67974;DHT22;54756;51.140;6.952;2023-12-14T10:53:57;6.70;99.90
67974;DHT22;54756;51.140;6.952;2023-12-14T10:56:00;6.70;99.90
67974;DHT22;54756;51.140;6.952;2023-12-14T10:58:04;6.70;99.90
67974;DHT22;54756;51.140;6.952;2023-12-14T11:00:05;6.70;99.90
67974;DHT22;54756;51.140;6.952;2023-12-14T11:02:09;6.70;99.90
67974;DHT22;54756;51.140;6.952;2023-12-14T11:04:10;6.70;99.90
67974;DHT22;54756;51.140;6.952;2023-12-14T11:08:34;6.70;99.90
67974;DHT22;54756;51.140;6.952;2023-12-14T11:10:39;6.70;99.90
67974;DHT22;54756;51.140;6.952;2023-12-14T11:13:00;6.70;99.90
67974;DHT22;54756;51.140;6.952;2023-12-14T11:15:01;6.70;99.90
67974;DHT22;54756;51.140;6.952;2023-12-14T11:17:05;6.70;99.90
67974;DHT22;54756;51.140;6.952;2023-12-14T11:21:22;6.70;99.90
67974;DHT22;54756;51.140;6.952;2023-12-14T11:25:25;6.70;99.90
67974;DHT22;54756;51.140;6.952;2023-12-14T11:27:28;6.70;99.90
67974;DHT22;54756;51.140;6.952;2023-12-14T11:29:29;6.70;99.90
67974;DHT22;54756;51.140;6.952;2023-12-14T11:31:30;6.70;99.90
67974;DHT22;54756;51.140;6.952;2023-12-14T11:33:32;6.70;99.90
67974;DHT22;54756;51.140;6.952;2023-12-14T11:35:33;6.70;99.90
67974;DHT22;54756;51.140;6.952;2023-12-14T11:37:33;6.60;99.90
67974;DHT22;54756;51.140;6.952;2023-12-14T11:39:37;6.60;99.90
67974;DHT22;54756;51.140;6.952;2023-12-14T11:41:38;6.60;99.90
67974;DHT22;54756;51.140;6.952;2023-12-14T11:43:43;6.60;99.90
67974;DHT22;54756;51.140;6.952;2023-12-14T11:45:44;6.60;99.90
67974;DHT22;54756;51.140;6.952;2023-12-14T11:47:44;6.60;99.90
67974;DHT22;54756;51.140;6.952;2023-12-14T11:49:45;6.60;99.90
67974;DHT22;54756;51.140;6.952;2023-12-14T11:51:46;6.60;99.90
67974;DHT22;54756;51.140;6.952;2023-12-14T11:53:47;6.60;99.90
67974;DHT22;54756;51.140;6.952;2023-12-14T11:55:51;6.60;99.90
67974;DHT22;54756;51.140;6.952;2023-12-14T11:57:52;6.60;99.90
67974;DHT22;54756;51.140;6.952;2023-12-14T11:59:53;6.60;99.90
67974;DHT22;54756;51.140;6.952;2023-12-14T12:01:58;6.60;99.90
67974;DHT22;54756;51.140;6.952;2023-12-14T12:04:08;6.60;99.90
67974;DHT22;54756;51.140;6.952;2023-12-14T12:06:24;6.60;99.90
67974;DHT22;54756;51.140;6.952;2023-12-14T12:08:25;6.60;99.90
67974;DHT22;54756;51.140;6.952;2023-12-14T12:10:25;6.60;99.90
67974;DHT22;54756;51.140;6.952;2023-12-14T12:12:26;6.60;99.90
67974;DHT22;54756;51.140;6.952;2023-12-14T12:14:27;6.60;99.90
67974;DHT22;54756;51.140;6.952;2023-12-14T12:16:28;6.60;99.90
67974;DHT22;54756;51.140;6.952;2023-12-14T12:18:28;6.60;99.90
67974;DHT22;54756;51.140;6.952;2023-12-14T12:20:29;6.60;99.90
67974;DHT22;54756;51.140;6.952;2023-12-14T12:22:29;6.60;99.90
67974;DHT22;54756;51.140;6.952;2023-12-14T12:24:30;6.60;99.90
67974;DHT22;54756;51.140;6.952;2023-12-14T12:26:31;6.60;99.90
67974;DHT22;54756;51.140;6.952;2023-12-14T12:28:31;6.60;99.90
67974;DHT22;54756;51.140;6.952;2023-12-14T12:30:32;6.60;99.90
67974;DHT22;54756;51.140;6.952;2023-12-14T12:32:33;6.60;99.90
67974;DHT22;54756;51.140;6.952;2023-12-14T12:34:33;6.60;99.90
67974;DHT22;54756;51.140;6.952;2023-12-14T12:36:34;6.60;99.90
67974;DHT22;54756;51.140;6.952;2023-12-14T12:38:34;6.60;99.90
67974;DHT22;54756;51.140;6.952;2023-12-14T12:40:37;6.60;99.90
67974;DHT22;54756;51.140;6.952;2023-12-14T12:42:39;6.70;99.90
67974;DHT22;54756;51.140;6.952;2023-12-14T12:44:39;6.70;99.90
67974;DHT22;54756;51.140;6.952;2023-12-14T12:46:40;6.70;99.90
67974;DHT22;54756;51.140;6.952;2023-12-14T12:48:41;6.70;99.90
67974;DHT22;54756;51.140;6.952;2023-12-14T12:50:41;6.70;99.90
67974;DHT22;54756;51.140;6.952;2023-12-14T12:52:42;6.70;99.90
67974;DHT22;54756;51.140;6.952;2023-12-14T12:54:42;6.70;99.90
67974;DHT22;54756;51.140;6.952;2023-12-14T12:56:43;6.70;99.90
67974;DHT22;54756;51.140;6.952;2023-12-14T12:58:43;6.70;99.90
67974;DHT22;54756;51.140;6.952;2023-12-14T13:00:44;6.70;99.90
67974;DHT22;54756;51.140;6.952;2023-12-14T13:02:45;6.70;99.90
67974;DHT22;54756;51.140;6.952;2023-12-14T13:04:45;6.70;99.90